Time;durP1;ratioP1;P1;durP2;ratioP2;P2;SDS_P1;SDS_P2;PMS_P1;PMS_P2;Temp;Humidity;BMP_temperature;BMP_pressure;BME280_temperature;BME280_humidity;BME280_pressure;Samples;Min_cycle;Max_cycle;Signal;HPM_P1;HPM_P2
2023/04/25 00:02:25;;;;;;;11.23;3.45;;;;;;;8.07;73.94;101022.72;5022365;28;20024;-89
2023/04/25 00:04:50;;;;;;;13.02;3.80;;;;;;;8.01;74.08;101018.47;5020973;28;20025;-90
2023/04/25 00:07:16;;;;;;;7.63;3.55;;;;;;;7.93;73.90;101017.84;5020878;28;20029;-90
2023/04/25 00:09:42;;;;;;;10.00;2.97;;;;;;;7.87;74.27;101017.97;5004502;28;20029;-90
2023/04/25 00:12:07;;;;;;;13.55;4.90;;;;;;;7.83;74.00;101024.22;5026537;28;20358;-89
2023/04/25 00:14:35;;;;;;;9.77;3.53;;;;;;;7.80;74.50;101030.44;5014105;28;20534;-90
2023/04/25 00:17:02;;;;;;;10.80;3.72;;;;;;;7.73;74.34;101031.47;5006587;28;20057;-90
2023/04/25 00:19:28;;;;;;;8.13;2.95;;;;;;;7.66;74.61;101030.78;5025284;28;20029;-90
2023/04/25 00:21:57;;;;;;;8.82;3.17;;;;;;;7.61;74.69;101029.19;5008424;28;20021;-90
2023/04/25 00:24:22;;;;;;;9.43;3.28;;;;;;;7.61;75.05;101045.81;5010590;28;20404;-90
2023/04/25 00:26:47;;;;;;;7.75;3.08;;;;;;;7.47;75.07;101026.88;5008409;28;20030;-90
2023/04/25 00:29:13;;;;;;;9.55;3.50;;;;;;;7.51;75.42;101035.59;5022698;28;20064;-90
2023/04/25 00:31:38;;;;;;;5.40;2.88;;;;;;;7.43;75.57;101035.75;5025906;28;20458;-90
2023/04/25 00:34:03;;;;;;;11.23;3.58;;;;;;;7.51;75.51;101036.44;5016001;28;20084;-90
2023/04/25 00:36:29;;;;;;;12.13;3.90;;;;;;;7.50;75.61;101037.31;5023361;28;20029;-90
2023/04/25 00:38:55;;;;;;;12.00;3.33;;;;;;;7.50;75.09;101037.31;5021223;28;20029;-90
2023/04/25 00:41:21;;;;;;;8.57;2.88;;;;;;;7.40;76.07;101022.66;5008268;28;20650;-90
2023/04/25 00:43:47;;;;;;;5.57;3.20;;;;;;;7.32;76.30;101033.38;5001452;28;20499;-90
2023/04/25 00:46:13;;;;;;;12.73;3.03;;;;;;;7.35;76.21;101032.44;5027007;28;20017;-90
2023/04/25 00:48:38;;;;;;;9.10;3.13;;;;;;;7.26;76.04;101016.88;5023720;28;20096;-90
2023/04/25 00:51:04;;;;;;;8.10;2.90;;;;;;;7.24;76.40;101021.31;5002193;28;20031;-90
2023/04/25 00:53:30;;;;;;;8.95;3.00;;;;;;;7.20;76.28;101025.78;5024239;28;20026;-90
2023/04/25 00:55:55;;;;;;;15.88;3.85;;;;;;;7.23;76.99;101037.97;5025369;28;20034;-89
2023/04/25 00:58:22;;;;;;;11.15;3.83;;;;;;;7.16;76.99;101024.97;5020870;28;20026;-90
2023/04/25 01:00:49;;;;;;;6.68;3.65;;;;;;;7.19;77.05;101028.44;5010034;28;20516;-90
2023/04/25 01:03:28;;;;;;;10.95;3.75;;;;;;;7.24;76.86;101039.72;5025040;28;20083;-90
2023/04/25 01:05:54;;;;;;;7.22;3.47;;;;;;;7.29;76.95;101045.72;5022243;28;20038;-90
2023/04/25 01:08:23;;;;;;;8.13;3.58;;;;;;;7.25;76.91;101044.06;5017451;28;20017;-90
2023/04/25 01:10:48;;;;;;;24.02;4.88;;;;;;;7.14;76.23;101024.16;5008266;28;20037;-90
2023/04/25 01:13:14;;;;;;;10.65;3.10;;;;;;;7.20;76.62;101040.69;5021751;28;20022;-90
2023/04/25 01:15:39;;;;;;;7.30;2.75;;;;;;;7.09;76.56;101038.31;5027342;28;21787;-90
2023/04/25 01:18:06;;;;;;;8.93;3.08;;;;;;;7.04;77.04;101030.53;5005517;28;20017;-89
2023/04/25 01:20:32;;;;;;;14.63;3.28;;;;;;;7.06;76.93;101036.59;5003379;28;20033;-91
2023/04/25 01:22:58;;;;;;;11.25;3.30;;;;;;;6.98;77.16;101035.91;5026195;28;20021;-90
2023/04/25 01:25:23;;;;;;;9.02;3.83;;;;;;;6.98;77.06;101040.28;5007625;28;20389;-89
2023/04/25 01:27:49;;;;;;;10.75;3.60;;;;;;;6.98;76.77;101046.41;5022332;28;20052;-90
2023/04/25 01:30:14;;;;;;;11.40;3.15;;;;;;;6.92;76.86;101041.31;5017115;28;20061;-90
2023/04/25 01:32:41;;;;;;;10.10;3.75;;;;;;;6.90;77.47;101035.19;5023570;28;20044;-90
2023/04/25 01:35:09;;;;;;;14.55;4.20;;;;;;;6.95;77.28;101045.59;5030775;28;20174;-90
2023/04/25 01:37:43;;;;;;;9.35;3.42;;;;;;;7.06;77.51;101051.50;5021999;28;20635;-90
2023/04/25 01:40:11;;;;;;;12.10;3.92;;;;;;;7.09;77.56;101046.19;5020810;28;20094;-90
2023/04/25 01:42:38;;;;;;;12.70;4.28;;;;;;;7.20;77.20;101059.09;4998622;28;20029;-89
2023/04/25 01:45:05;;;;;;;14.98;3.67;;;;;;;7.25;77.36;101054.59;5018645;28;20033;-90
2023/04/25 01:47:30;;;;;;;16.33;4.30;;;;;;;7.24;76.79;101055.50;5024713;28;20060;-89
2023/04/25 01:49:56;;;;;;;11.35;4.28;;;;;;;7.27;76.99;101055.41;5003585;28;20495;-90
2023/04/25 01:52:21;;;;;;;15.98;3.97;;;;;;;7.29;76.54;101045.72;5006228;28;20416;-90
2023/04/25 01:54:47;;;;;;;9.63;3.83;;;;;;;7.29;76.41;101043.97;5026699;28;20048;-90
2023/04/25 01:57:13;;;;;;;13.20;4.18;;;;;;;7.32;76.26;101053.53;5014760;28;20026;-89
2023/04/25 01:59:39;;;;;;;19.95;4.22;;;;;;;7.38;75.80;101061.31;5015233;28;20026;-89
2023/04/25 02:02:04;;;;;;;14.63;3.70;;;;;;;7.36;75.19;101052.56;5022069;28;20032;-90
2023/04/25 02:04:30;;;;;;;13.55;3.50;;;;;;;7.43;75.60;101063.81;5004759;28;20030;-89
2023/04/25 02:06:56;;;;;;;17.45;4.45;;;;;;;7.28;74.90;101046.66;5025843;28;20037;-89
2023/04/25 02:09:21;;;;;;;11.70;3.67;;;;;;;7.33;75.05;101058.78;5016024;28;20030;-89
2023/04/25 02:11:47;;;;;;;13.10;4.20;;;;;;;7.24;74.63;101061.63;5022925;28;20044;-89
2023/04/25 02:14:12;;;;;;;9.32;3.58;;;;;;;7.24;75.42;101063.38;5022063;28;20026;-89
2023/04/25 02:16:39;;;;;;;12.43;3.38;;;;;;;7.21;75.59;101068.72;4998976;28;20497;-89
2023/04/25 02:19:04;;;;;;;10.82;4.40;;;;;;;7.17;75.44;101067.91;5022772;28;20105;-89
2023/04/25 02:21:30;;;;;;;10.52;4.00;;;;;;;7.13;75.35;101075.03;5003738;28;20168;-89
2023/04/25 02:23:56;;;;;;;13.60;4.18;;;;;;;7.09;75.29;101078.59;5033446;28;20479;-89
2023/04/25 02:26:21;;;;;;;13.93;3.42;;;;;;;7.07;75.46;101080.38;5028963;28;20032;-89
2023/04/25 02:28:46;;;;;;;12.88;3.90;;;;;;;7.00;75.63;101065.66;5036556;28;20452;-89
2023/04/25 02:31:12;;;;;;;14.65;3.88;;;;;;;6.97;75.71;101070.13;5009655;28;20518;-89
2023/04/25 02:33:37;;;;;;;11.90;4.00;;;;;;;7.02;75.85;101081.41;5013218;28;20033;-89
2023/04/25 02:36:03;;;;;;;13.00;3.88;;;;;;;6.97;75.94;101070.97;5027742;28;20029;-89
2023/04/25 02:38:28;;;;;;;11.93;3.78;;;;;;;6.92;76.62;101083.34;5021915;28;20025;-89
2023/04/25 02:40:53;;;;;;;10.90;3.70;;;;;;;6.88;76.43;101079.06;5031858;28;20382;-88
2023/04/25 02:43:20;;;;;;;13.70;3.45;;;;;;;6.89;76.18;101078.16;5031607;28;20404;-89
2023/04/25 02:45:45;;;;;;;11.63;3.63;;;;;;;6.87;75.50;101069.44;5010116;28;20036;-89
2023/04/25 02:48:11;;;;;;;18.40;3.78;;;;;;;6.79;75.83;101066.97;5034220;28;20036;-89
2023/04/25 02:50:36;;;;;;;15.65;4.03;;;;;;;6.81;75.99;101083.59;5013031;28;20457;-89
2023/04/25 02:53:01;;;;;;;14.63;4.22;;;;;;;6.73;75.79;101066.25;5031337;28;20030;-88
2023/04/25 02:55:26;;;;;;;14.10;4.05;;;;;;;6.74;76.42;101075.84;5034149;28;20021;-89
2023/04/25 02:57:55;;;;;;;11.90;3.67;;;;;;;6.66;76.48;101076.00;5016273;28;20025;-89
2023/04/25 03:00:20;;;;;;;12.40;3.70;;;;;;;6.60;76.17;101066.47;5013095;28;20060;-90
2023/04/25 03:02:45;;;;;;;10.65;3.83;;;;;;;6.62;76.38;101077.84;5009972;28;20485;-89
2023/04/25 03:05:11;;;;;;;17.27;4.05;;;;;;;6.64;76.31;101086.56;5021895;28;20462;-89
2023/04/25 03:07:36;;;;;;;11.18;3.40;;;;;;;6.63;76.63;101079.56;5013985;28;20155;-89
2023/04/25 03:10:02;;;;;;;11.45;3.97;;;;;;;6.57;76.24;101074.41;5018885;28;20697;-89
2023/04/25 03:12:27;;;;;;;9.63;3.58;;;;;;;6.59;76.56;101077.91;5011787;28;20021;-89
2023/04/25 03:14:52;;;;;;;15.55;4.53;;;;;;;6.53;77.02;101083.28;5031572;28;20025;-89
2023/04/25 03:17:17;;;;;;;10.55;3.78;;;;;;;6.50;76.87;101080.69;5009182;28;20049;-89
2023/04/25 03:19:43;;;;;;;11.02;3.90;;;;;;;6.46;76.70;101086.91;5031598;28;20123;-89
2023/04/25 03:22:08;;;;;;;19.23;4.50;;;;;;;6.39;76.79;101078.28;5010775;28;20093;-89
2023/04/25 03:24:33;;;;;;;14.60;3.75;;;;;;;6.43;77.05;101092.22;5011871;28;20478;-89
2023/04/25 03:26:59;;;;;;;15.68;4.82;;;;;;;6.41;77.28;101085.28;5027874;28;20030;-89
2023/04/25 03:29:26;;;;;;;15.25;3.88;;;;;;;6.41;77.69;101083.50;5010525;28;20234;-89
2023/04/25 03:31:51;;;;;;;18.08;4.30;;;;;;;6.45;78.25;101086.94;5023186;28;20067;-89
2023/04/25 03:34:16;;;;;;;12.18;3.92;;;;;;;6.42;77.67;101081.75;5027447;28;20436;-89
2023/04/25 03:36:42;;;;;;;13.40;4.28;;;;;;;6.44;77.72;101072.97;5022908;28;20029;-89
2023/04/25 03:39:07;;;;;;;16.75;5.20;;;;;;;6.52;77.67;101088.53;5017570;28;20034;-90
2023/04/25 03:41:32;;;;;;;19.30;5.00;;;;;;;6.41;77.69;101067.75;5014096;28;20116;-89
2023/04/25 03:43:57;;;;;;;12.30;4.30;;;;;;;6.54;77.63;101092.03;5013443;28;20025;-90
2023/04/25 03:46:23;;;;;;;20.10;4.70;;;;;;;6.55;77.30;101089.34;5009504;28;20025;-89
2023/04/25 03:48:48;;;;;;;17.20;5.55;;;;;;;6.55;77.10;101085.88;5028209;28;20033;-89
2023/04/25 03:51:13;;;;;;;20.60;4.85;;;;;;;6.60;77.36;101092.75;5026777;28;20511;-89
2023/04/25 03:53:38;;;;;;;14.75;4.45;;;;;;;6.61;76.93;101083.97;5029989;28;20037;-89
2023/04/25 03:56:04;;;;;;;15.80;4.55;;;;;;;6.57;77.11;101074.41;5029147;28;20026;-89
2023/04/25 03:58:29;;;;;;;21.05;4.90;;;;;;;6.65;77.06;101090.91;5032729;28;20095;-90
2023/04/25 04:00:55;;;;;;;15.23;5.20;;;;;;;6.70;77.03;101095.19;5026519;28;20100;-89
2023/04/25 04:03:20;;;;;;;15.93;4.95;;;;;;;6.65;77.61;101079.53;5005370;28;20029;-89
2023/04/25 04:05:46;;;;;;;15.07;4.13;;;;;;;6.68;77.07;101086.50;5016598;28;20037;-90
2023/04/25 04:08:11;;;;;;;19.15;4.85;;;;;;;6.71;77.03;101097.78;5005856;28;20057;-90
2023/04/25 04:10:37;;;;;;;12.55;5.13;;;;;;;6.69;76.29;101099.59;5008935;28;20021;-90
2023/04/25 04:13:02;;;;;;;16.65;5.10;;;;;;;6.65;76.64;101098.78;5025908;28;20034;-90
2023/04/25 04:15:29;;;;;;;14.48;5.28;;;;;;;6.73;76.98;101117.03;5015700;28;20040;-90
2023/04/25 04:17:54;;;;;;;11.27;4.20;;;;;;;6.73;77.00;101111.78;5009366;28;20427;-89
2023/04/25 04:20:20;;;;;;;13.75;4.43;;;;;;;6.78;77.10;101122.19;5017790;28;20087;-90
2023/04/25 04:22:46;;;;;;;11.65;4.32;;;;;;;6.73;76.98;101110.91;5007612;28;20077;-90
2023/04/25 04:25:12;;;;;;;13.45;4.93;;;;;;;6.83;76.71;101125.59;5033105;28;20021;-90
2023/04/25 04:27:38;;;;;;;14.25;4.40;;;;;;;6.79;76.49;101113.41;5012805;28;20183;-90
2023/04/25 04:30:04;;;;;;;19.13;4.85;;;;;;;6.84;76.43;101122.06;5021168;28;20030;-89
2023/04/25 04:32:30;;;;;;;16.80;4.47;;;;;;;6.76;76.47;101105.56;5026852;28;20366;-90
2023/04/25 04:34:55;;;;;;;12.13;4.00;;;;;;;6.83;76.02;101115.94;5027026;28;20026;-91
2023/04/25 04:37:21;;;;;;;17.48;4.57;;;;;;;6.83;75.40;101118.56;5022554;28;20484;-89
2023/04/25 04:39:47;;;;;;;11.55;4.28;;;;;;;6.88;75.79;101129.84;5009563;28;20037;-90
2023/04/25 04:42:12;;;;;;;15.15;4.05;;;;;;;6.95;76.27;101128.00;5025838;28;20018;-89
2023/04/25 04:44:38;;;;;;;10.98;4.82;;;;;;;6.79;75.84;101102.91;5018162;28;20478;-89
2023/04/25 04:47:06;;;;;;;18.25;4.40;;;;;;;6.98;75.57;101135.78;5022675;28;20036;-89
2023/04/25 04:49:31;;;;;;;15.35;4.38;;;;;;;6.90;75.51;101122.81;5008436;28;20116;-89
2023/04/25 04:51:56;;;;;;;14.18;4.35;;;;;;;6.98;74.81;101135.78;5023006;28;20548;-90
2023/04/25 04:54:22;;;;;;;12.27;3.88;;;;;;;6.97;74.63;101139.31;5024421;28;20021;-89
2023/04/25 04:56:47;;;;;;;15.43;3.60;;;;;;;6.95;75.14;101143.75;5025305;28;20033;-90
2023/04/25 04:59:12;;;;;;;12.70;4.68;;;;;;;6.86;75.02;101131.66;5008178;28;20029;-89
2023/04/25 05:01:37;;;;;;;17.52;5.43;;;;;;;6.94;75.38;101147.25;5022989;28;20033;-90
2023/04/25 05:04:03;;;;;;;10.90;4.05;;;;;;;6.92;75.22;101141.19;5003194;28;20112;-89
2023/04/25 05:06:29;;;;;;;21.67;4.80;;;;;;;7.05;75.02;101157.56;5005400;28;20392;-89
2023/04/25 05:08:55;;;;;;;11.70;4.45;;;;;;;7.09;74.98;101161.88;5026258;28;20177;-89
2023/04/25 05:11:22;;;;;;;17.08;5.20;;;;;;;7.15;75.28;101165.22;5005759;28;20424;-89
2023/04/25 05:13:48;;;;;;;16.38;5.07;;;;;;;7.22;75.06;101167.72;5026540;28;20033;-88
2023/04/25 05:16:13;;;;;;;17.60;4.60;;;;;;;7.29;74.39;101174.59;5028256;28;20045;-89
2023/04/25 05:18:39;;;;;;;13.18;4.38;;;;;;;7.32;74.18;101179.78;5005385;28;20037;-89
2023/04/25 05:21:05;;;;;;;13.55;4.35;;;;;;;7.38;73.23;101177.91;5019155;28;20142;-89
2023/04/25 05:23:31;;;;;;;13.82;4.15;;;;;;;7.39;73.00;101171.72;5004513;28;20113;-89
2023/04/25 05:25:56;;;;;;;13.77;4.35;;;;;;;7.42;73.08;101178.69;5024831;28;20033;-89
2023/04/25 05:28:21;;;;;;;18.13;3.90;;;;;;;7.48;73.18;101186.44;5029462;28;20081;-89
2023/04/25 05:30:47;;;;;;;21.48;5.47;;;;;;;7.55;72.89;101187.16;5023505;28;20018;-89
2023/04/25 05:33:12;;;;;;;10.80;4.60;;;;;;;7.57;72.91;101190.66;5014388;28;20025;-89
2023/04/25 05:35:38;;;;;;;16.58;4.03;;;;;;;7.61;72.71;101193.19;5021646;28;20052;-89
2023/04/25 05:38:03;;;;;;;10.55;3.95;;;;;;;7.68;71.41;101197.38;5001107;28;20057;-89
2023/04/25 05:40:28;;;;;;;15.98;3.90;;;;;;;7.70;72.11;101194.75;5016820;28;20415;-89
2023/04/25 05:42:54;;;;;;;12.45;4.03;;;;;;;7.77;71.96;101195.44;5007415;28;20469;-89
2023/04/25 05:45:19;;;;;;;15.00;4.28;;;;;;;7.82;71.30;101193.56;5022992;28;20029;-89
2023/04/25 05:47:44;;;;;;;17.48;4.05;;;;;;;7.86;70.69;101197.88;5004614;28;20021;-89
2023/04/25 05:50:10;;;;;;;13.32;3.50;;;;;;;7.87;70.98;101196.97;5001146;28;20036;-89
2023/04/25 05:52:35;;;;;;;14.88;4.25;;;;;;;7.94;70.61;101203.84;5019470;28;20029;-89
2023/04/25 05:55:00;;;;;;;10.27;3.80;;;;;;;8.04;70.44;101215.88;5021287;28;20017;-89
2023/04/25 05:57:27;;;;;;;14.70;4.00;;;;;;;8.10;70.94;101202.56;5025200;28;20044;-90
2023/04/25 05:59:53;;;;;;;9.75;4.20;;;;;;;8.21;69.45;101211.97;5001145;28;20132;-89
2023/04/25 06:02:20;;;;;;;12.15;4.00;;;;;;;8.21;69.67;101225.13;5009196;28;20032;-89
2023/04/25 06:04:46;;;;;;;8.30;3.05;;;;;;;8.32;69.35;101225.75;5027580;28;20030;-89
2023/04/25 06:07:11;;;;;;;14.57;4.47;;;;;;;8.31;68.54;101224.03;5028957;28;20369;-89
2023/04/25 06:09:38;;;;;;;14.60;3.60;;;;;;;8.39;68.36;101237.88;5026258;28;20480;-90
2023/04/25 06:12:04;;;;;;;12.27;3.45;;;;;;;8.42;68.48;101232.53;5018607;28;20030;-89
2023/04/25 06:14:30;;;;;;;11.85;4.35;;;;;;;8.42;68.11;101236.03;5012391;28;20029;-89
2023/04/25 06:16:55;;;;;;;10.65;3.25;;;;;;;8.39;67.77;101233.50;5020192;28;20049;-89
2023/04/25 06:19:20;;;;;;;9.57;3.10;;;;;;;8.42;68.47;101235.19;5019800;28;20032;-89
2023/04/25 06:21:46;;;;;;;12.50;3.28;;;;;;;8.40;66.90;101227.31;5004471;28;20033;-89
2023/04/25 06:24:11;;;;;;;8.85;3.13;;;;;;;8.34;66.66;101218.66;4997385;28;20033;-89
2023/04/25 06:26:36;;;;;;;8.27;3.70;;;;;;;8.25;66.68;101243.44;5019818;28;20079;-89
2023/04/25 06:29:02;;;;;;;6.65;3.15;;;;;;;8.10;67.25;101233.28;5019983;28;20024;-88
2023/04/25 06:31:28;;;;;;;8.45;2.40;;;;;;;8.08;67.12;101237.75;5006247;28;20036;-89
2023/04/25 06:33:54;;;;;;;11.82;2.92;;;;;;;8.08;67.52;101235.97;5030348;28;20064;-89
2023/04/25 06:36:24;;;;;;;9.68;2.88;;;;;;;8.12;67.61;101244.69;5029057;28;20064;-89
2023/04/25 06:38:53;;;;;;;6.68;3.03;;;;;;;8.06;68.01;101235.13;5009130;28;20025;-89
2023/04/25 06:41:18;;;;;;;7.80;3.35;;;;;;;8.08;66.99;101240.38;5008104;28;20037;-89
2023/04/25 06:43:44;;;;;;;13.70;3.17;;;;;;;8.03;66.70;101237.00;5021468;28;20496;-89
2023/04/25 06:46:09;;;;;;;11.98;3.13;;;;;;;8.16;68.06;101249.84;5002911;28;20079;-89
2023/04/25 06:48:34;;;;;;;7.60;3.08;;;;;;;8.16;67.00;101241.06;5005547;28;20358;-88
2023/04/25 06:51:00;;;;;;;7.43;2.35;;;;;;;8.28;67.14;101253.06;5006002;28;20049;-89
2023/04/25 06:53:25;;;;;;;10.13;2.92;;;;;;;8.33;66.37;101264.34;5024476;28;20442;-89
2023/04/25 06:55:50;;;;;;;10.30;2.15;;;;;;;8.34;65.87;101268.72;5019178;28;20057;-89
2023/04/25 06:58:16;;;;;;;12.40;2.75;;;;;;;8.41;65.64;101258.03;5012432;28;20041;-89
2023/04/25 07:00:42;;;;;;;4.35;1.65;;;;;;;8.48;63.26;101255.25;5007391;28;20240;-89
2023/04/25 07:03:07;;;;;;;11.20;2.15;;;;;;;8.47;63.90;101251.75;5024383;28;20036;-89
2023/04/25 07:05:32;;;;;;;5.28;1.58;;;;;;;8.66;64.58;101271.44;5024883;28;20032;-89
2023/04/25 07:08:00;;;;;;;6.50;1.85;;;;;;;8.75;64.33;101270.34;5006511;28;20036;-89
2023/04/25 07:10:26;;;;;;;10.57;2.15;;;;;;;8.74;63.18;101250.19;5027658;28;20160;-89
2023/04/25 07:12:51;;;;;;;7.43;2.05;;;;;;;8.78;61.75;101254.47;5025345;28;20125;-89
2023/04/25 07:15:16;;;;;;;4.85;1.92;;;;;;;8.88;62.24;101271.78;5023647;28;20069;-89
2023/04/25 07:17:42;;;;;;;5.22;1.60;;;;;;;9.02;63.12;101274.03;5011692;28;20065;-89
2023/04/25 07:20:09;;;;;;;6.65;2.00;;;;;;;9.06;61.43;101266.94;5026696;28;20044;-90
2023/04/25 07:22:34;;;;;;;8.05;2.00;;;;;;;9.17;62.18;101276.25;5005195;28;20034;-89
2023/04/25 07:24:59;;;;;;;9.88;2.17;;;;;;;9.29;62.69;101271.56;5034177;28;20022;-89
2023/04/25 07:27:25;;;;;;;5.18;1.70;;;;;;;9.41;61.34;101281.75;5021773;28;20025;-90
2023/04/25 07:29:50;;;;;;;6.70;2.10;;;;;;;9.50;61.14;101278.00;5025405;28;20031;-87
2023/04/25 07:32:15;;;;;;;4.47;1.88;;;;;;;9.67;60.53;101287.16;5007716;28;20025;-89
2023/04/25 07:34:41;;;;;;;5.40;1.75;;;;;;;9.90;58.55;101293.56;5023619;28;20057;-89
2023/04/25 07:37:06;;;;;;;5.00;2.20;;;;;;;10.00;58.07;101302.06;5024528;28;20041;-89
2023/04/25 07:39:32;;;;;;;3.80;1.95;;;;;;;10.22;57.36;101303.13;5030095;28;20497;-89
2023/04/25 07:41:58;;;;;;;6.93;1.95;;;;;;;10.52;55.86;101309.25;5020717;28;20021;-90
2023/04/25 07:44:24;;;;;;;5.40;1.58;;;;;;;10.89;55.18;101319.47;5028266;28;20164;-89
2023/04/25 07:46:49;;;;;;;5.43;1.40;;;;;;;11.32;52.06;101317.97;5024332;28;20031;-90
2023/04/25 07:49:15;;;;;;;2.80;1.30;;;;;;;11.45;53.16;101307.81;5024468;28;20790;-89
2023/04/25 07:51:43;;;;;;;3.95;1.35;;;;;;;11.55;51.25;101317.16;5005686;28;20087;-90
2023/04/25 07:54:08;;;;;;;6.00;1.38;;;;;;;11.51;52.23;101304.94;5005445;28;20029;-89
2023/04/25 07:56:33;;;;;;;5.68;1.33;;;;;;;11.78;50.87;101315.44;5022222;28;20409;-89
2023/04/25 07:58:59;;;;;;;4.82;1.80;;;;;;;12.09;50.59;101320.47;5007302;28;20029;-89
2023/04/25 08:01:24;;;;;;;4.85;1.38;;;;;;;12.56;50.74;101331.84;5006737;28;20029;-90
2023/04/25 08:03:50;;;;;;;4.20;1.60;;;;;;;12.29;50.43;101319.69;5021311;28;20021;-90
2023/04/25 08:06:15;;;;;;;7.43;1.63;;;;;;;11.90;51.65;101315.88;5010345;28;21083;-90
2023/04/25 08:08:40;;;;;;;6.60;1.77;;;;;;;11.88;50.44;101325.66;5021671;28;20022;-90
2023/04/25 08:11:06;;;;;;;7.28;2.17;;;;;;;12.05;50.74;101326.81;5006856;28;20106;-90
2023/04/25 08:13:31;;;;;;;7.60;2.03;;;;;;;12.26;48.63;101328.59;5025705;28;20029;-89
2023/04/25 08:15:56;;;;;;;6.13;1.70;;;;;;;12.19;49.47;101337.75;5007363;28;20046;-90
2023/04/25 08:18:21;;;;;;;6.25;1.83;;;;;;;12.26;49.62;101339.22;5019119;28;20389;-90
2023/04/25 08:20:48;;;;;;;8.48;2.25;;;;;;;12.38;49.93;101338.75;5023150;28;20054;-89
2023/04/25 08:23:13;;;;;;;11.43;2.33;;;;;;;12.55;49.48;101346.03;5022302;28;20103;-90
2023/04/25 08:25:38;;;;;;;10.13;2.03;;;;;;;12.51;50.58;101344.44;5023829;28;20037;-90
2023/04/25 08:28:03;;;;;;;4.95;1.65;;;;;;;12.15;50.22;101341.44;5008149;28;20498;-90
2023/04/25 08:30:29;;;;;;;8.95;2.03;;;;;;;12.02;50.79;101356.94;4999480;28;20021;-90
2023/04/25 08:32:55;;;;;;;5.55;2.00;;;;;;;11.85;51.18;101365.53;5026487;28;20404;-90
2023/04/25 08:35:20;;;;;;;6.18;1.73;;;;;;;11.82;50.57;101359.44;5026881;28;20029;-90
2023/04/25 08:37:45;;;;;;;5.78;1.95;;;;;;;11.83;51.47;101353.25;5026134;28;20032;-90
2023/04/25 08:40:14;;;;;;;6.05;1.60;;;;;;;12.23;52.76;101374.69;5016404;28;20079;-90
2023/04/25 08:42:41;;;;;;;6.40;1.98;;;;;;;12.51;50.37;101370.94;5027973;28;20037;-90
2023/04/25 08:45:08;;;;;;;8.73;1.88;;;;;;;12.65;50.27;101365.94;5024240;28;20046;-88
2023/04/25 08:47:34;;;;;;;5.43;1.95;;;;;;;12.95;48.55;101368.25;5023095;28;20030;-90
2023/04/25 08:50:02;;;;;;;5.07;1.77;;;;;;;13.38;47.46;101371.78;5005213;28;20028;-89
2023/04/25 08:52:32;;;;;;;5.85;1.85;;;;;;;14.15;46.77;101383.38;5007870;28;20033;-89
2023/04/25 08:55:00;;;;;;;7.50;2.20;;;;;;;14.42;44.51;101377.69;5022966;28;20030;-89
2023/04/25 08:57:27;;;;;;;7.25;2.00;;;;;;;14.17;43.40;101381.50;5026860;28;20639;-90
2023/04/25 08:59:52;;;;;;;6.22;1.75;;;;;;;14.08;44.76;101379.25;5017815;28;20113;-89
2023/04/25 09:02:20;;;;;;;7.05;1.55;;;;;;;14.30;44.79;101397.75;5021495;28;20167;-89
2023/04/25 09:04:46;;;;;;;10.30;2.13;;;;;;;14.31;44.21;101391.50;5022553;28;20037;-89
2023/04/25 09:07:11;;;;;;;3.95;1.55;;;;;;;14.16;44.26;101408.16;5009784;28;20025;-90
2023/04/25 09:09:36;;;;;;;6.70;1.60;;;;;;;13.94;42.90;101390.56;5025053;28;20056;-90
2023/04/25 09:12:02;;;;;;;5.38;1.67;;;;;;;14.03;43.85;101421.16;5023970;28;20517;-89
2023/04/25 09:14:27;;;;;;;10.32;1.33;;;;;;;13.64;43.72;101408.72;4994017;28;20022;-89
2023/04/25 09:16:56;;;;;;;8.15;1.67;;;;;;;13.64;44.95;101426.44;5026051;28;20133;-90
2023/04/25 09:19:34;;;;;;;9.85;1.90;;;;;;;13.92;45.57;101429.63;5013297;28;20040;-89
2023/04/25 09:22:02;;;;;;;6.20;1.50;;;;;;;13.73;43.78;101432.22;5010093;28;20489;-90
2023/04/25 09:24:45;;;;;;;6.13;1.73;;;;;;;13.92;45.21;101434.06;5028495;28;20029;-89
2023/04/25 09:27:13;;;;;;;3.05;1.05;;;;;;;13.86;43.50;101435.22;5021384;28;20388;-89
2023/04/25 09:29:40;;;;;;;1.48;0.90;;;;;;;13.82;41.79;101424.78;5023724;28;20042;-89
2023/04/25 09:32:24;;;;;;;1.88;1.10;;;;;;;14.32;42.36;101438.47;5017157;28;20029;-89
2023/04/25 09:34:52;;;;;;;3.42;1.27;;;;;;;14.92;39.78;101438.28;5017814;28;20041;-89
2023/04/25 09:37:25;;;;;;;4.82;1.20;;;;;;;15.30;40.40;101445.25;5024877;28;20112;-89
2023/04/25 09:39:53;;;;;;;5.13;1.58;;;;;;;15.72;39.88;101435.19;5010108;28;20052;-87
2023/04/25 09:42:22;;;;;;;4.43;1.42;;;;;;;15.84;38.40;101423.88;5005662;28;20033;-89
2023/04/25 09:44:47;;;;;;;5.75;1.58;;;;;;;15.80;39.39;101432.97;5022674;28;20033;-88
2023/04/25 09:47:16;;;;;;;7.57;2.20;;;;;;;14.87;41.60;101440.31;5024921;28;20044;-88
2023/04/25 09:49:42;;;;;;;5.65;1.50;;;;;;;14.35;44.28;101454.25;5022725;28;20053;-88
2023/04/25 09:52:09;;;;;;;4.40;1.95;;;;;;;14.16;45.73;101448.91;5007049;28;20040;-89
2023/04/25 09:54:34;;;;;;;5.50;2.20;;;;;;;13.92;46.30;101450.88;5017361;28;20021;-88
2023/04/25 09:57:12;;;;;;;7.43;2.22;;;;;;;13.62;46.52;101458.41;5006890;28;20397;-89
2023/04/25 09:59:42;;;;;;;5.05;1.63;;;;;;;13.70;45.91;101461.56;5025424;28;20191;-89
2023/04/25 10:02:09;;;;;;;4.63;1.42;;;;;;;14.53;45.79;101442.78;5020783;28;20104;-89
2023/04/25 10:04:35;;;;;;;5.53;1.75;;;;;;;15.69;43.87;101459.34;5022271;28;20128;-88
2023/04/25 10:07:03;;;;;;;6.95;1.92;;;;;;;16.32;41.29;101455.06;5020740;28;20520;-88
2023/04/25 10:09:33;;;;;;;5.40;1.92;;;;;;;16.82;39.42;101462.09;5018388;28;20030;-88
2023/04/25 10:11:59;;;;;;;3.65;1.50;;;;;;;16.75;38.30;101454.53;5024941;28;20029;-89
2023/04/25 10:14:26;;;;;;;4.03;1.30;;;;;;;17.13;41.47;101455.03;5016174;28;20025;-88
2023/04/25 10:16:53;;;;;;;5.53;1.30;;;;;;;17.20;37.50;101455.50;5025256;28;20550;-88
2023/04/25 10:19:19;;;;;;;5.53;1.65;;;;;;;16.59;37.91;101443.81;5027156;28;20086;-88
2023/04/25 10:22:07;;;;;;;3.20;1.25;;;;;;;16.29;40.31;101449.03;5026956;28;20091;-87
2023/04/25 10:24:35;;;;;;;2.33;0.82;;;;;;;16.19;37.25;101455.81;5024286;28;20041;-88
2023/04/25 10:27:02;;;;;;;2.92;0.85;;;;;;;16.46;35.45;101438.31;5026065;28;20025;-88
2023/04/25 10:29:27;;;;;;;6.72;1.00;;;;;;;17.02;34.99;101452.97;5020439;28;20052;-88
2023/04/25 10:31:53;;;;;;;4.47;1.33;;;;;;;17.14;36.30;101442.50;5026924;28;20557;-88
2023/04/25 10:34:19;;;;;;;17.73;1.70;;;;;;;17.57;36.16;101447.03;5027043;28;20041;-88
2023/04/25 10:36:51;;;;;;;3.03;1.30;;;;;;;17.69;35.07;101448.13;5016389;28;20401;-88
2023/04/25 10:39:27;;;;;;;4.05;1.00;;;;;;;17.42;35.29;101457.78;5027050;28;20557;-88
2023/04/25 10:41:56;;;;;;;4.15;1.33;;;;;;;16.82;33.89;101470.09;5010837;28;20022;-89
2023/04/25 10:44:21;;;;;;;2.88;1.10;;;;;;;16.88;34.30;101450.22;5006009;28;20060;-89
2023/04/25 10:46:47;;;;;;;8.38;1.20;;;;;;;17.17;34.56;101451.22;5027614;28;20052;-89
2023/04/25 10:49:30;;;;;;;5.03;1.17;;;;;;;17.64;36.44;101458.25;5017039;28;20265;-88
2023/04/25 10:52:25;;;;;;;4.30;1.20;;;;;;;17.22;35.44;101469.66;5012570;28;20037;-89
2023/04/25 10:54:55;;;;;;;4.18;1.10;;;;;;;16.62;33.50;101458.81;5021944;28;20026;-89
2023/04/25 10:57:46;;;;;;;2.42;1.10;;;;;;;16.21;36.25;101464.59;5013703;28;20025;-89
2023/04/25 11:00:16;;;;;;;5.88;1.00;;;;;;;15.58;36.07;101467.84;5015686;28;20046;-88
2023/04/25 11:02:46;;;;;;;4.35;1.27;;;;;;;14.84;38.21;101481.28;5028596;28;20026;-89
2023/04/25 11:05:25;;;;;;;3.47;1.40;;;;;;;14.41;40.54;101483.25;5010435;28;20083;-89
2023/04/25 11:07:56;;;;;;;3.13;1.20;;;;;;;13.71;43.46;101487.25;5025372;28;20057;-89
2023/04/25 11:10:25;;;;;;;5.75;1.15;;;;;;;13.22;46.21;101497.25;5031291;28;20030;-90
2023/04/25 11:12:50;;;;;;;3.72;1.27;;;;;;;12.83;47.14;101496.16;5020804;28;20034;-88
2023/04/25 11:15:16;;;;;;;5.07;1.63;;;;;;;12.69;50.55;101488.75;5027798;28;20108;-89
2023/04/25 11:17:41;;;;;;;5.32;1.20;;;;;;;12.63;48.10;101491.59;5009527;28;20045;-88
2023/04/25 11:20:11;;;;;;;7.38;1.55;;;;;;;12.68;50.56;101511.75;5011125;28;20044;-89
2023/04/25 11:22:37;;;;;;;3.92;1.30;;;;;;;12.73;49.48;101512.44;5014977;28;20801;-90
2023/04/25 11:25:10;;;;;;;6.30;1.35;;;;;;;12.57;47.76;101505.97;5018344;28;20087;-89